Time;durP1;ratioP1;P1;durP2;ratioP2;P2;SDS_P1;SDS_P2;PMS_P1;PMS_P2;Temp;Humidity;BMP_temperature;BMP_pressure;BME280_temperature;BME280_humidity;BME280_pressure;Samples;Min_cycle;Max_cycle;Signal;HPM_P1;HPM_P2
2023/09/25 00:02:32;;;;;;;9.55;4.82;;;;;;;25.04;49.20;95143.63;6157424;28;108911;-60
2023/09/25 00:05:36;;;;;;;9.07;5.40;;;;;;;25.08;49.03;95139.19;6159205;28;108763;-60
2023/09/25 00:08:39;;;;;;;8.68;4.70;;;;;;;25.12;48.84;95143.91;6157618;28;108882;-59
2023/09/25 00:11:44;;;;;;;10.05;4.70;;;;;;;25.12;48.85;95141.22;6146876;28;109015;-60
2023/09/25 00:14:47;;;;;;;9.20;5.20;;;;;;;25.12;48.85;95149.25;6158271;28;108910;-60
2023/09/25 00:17:50;;;;;;;8.77;5.00;;;;;;;25.10;49.06;95146.91;6154644;28;109172;-60
2023/09/25 00:20:54;;;;;;;7.82;4.50;;;;;;;25.07;48.38;95142.97;6153705;28;109018;-58
2023/09/25 00:23:57;;;;;;;10.87;4.80;;;;;;;25.13;48.81;95140.09;6152404;28;109053;-60
2023/09/25 00:27:01;;;;;;;8.80;4.90;;;;;;;25.11;48.73;95126.25;6157623;28;108935;-59
2023/09/25 00:30:08;;;;;;;8.50;4.80;;;;;;;25.16;48.69;95144.81;6157556;28;109101;-60
2023/09/25 00:33:12;;;;;;;7.57;4.30;;;;;;;25.16;48.62;95140.25;6147521;28;108797;-60
2023/09/25 00:36:15;;;;;;;7.80;4.57;;;;;;;25.18;48.37;95142.59;6158951;28;109274;-60
2023/09/25 00:39:18;;;;;;;7.90;4.70;;;;;;;25.18;48.49;95139.91;6161361;28;108872;-60
2023/09/25 00:42:23;;;;;;;7.83;4.80;;;;;;;25.17;48.92;95141.81;6161789;28;108998;-60
2023/09/25 00:45:26;;;;;;;8.65;4.50;;;;;;;25.14;48.59;95145.13;6149974;28;109075;-58
2023/09/25 00:48:32;;;;;;;6.30;4.50;;;;;;;25.18;48.62;95139.91;6157513;28;108917;-57
2023/09/25 00:51:35;;;;;;;7.90;4.70;;;;;;;25.17;48.80;95149.06;6160503;28;109081;-59
2023/09/25 00:54:39;;;;;;;8.80;5.28;;;;;;;25.17;48.40;95149.06;6158077;28;109012;-60
2023/09/25 00:57:49;;;;;;;9.40;4.90;;;;;;;25.11;48.30;95143.13;6156836;28;108814;-59
2023/09/25 01:00:54;;;;;;;7.65;4.75;;;;;;;25.08;48.67;95147.22;6160153;28;108913;-59
2023/09/25 01:03:57;;;;;;;9.10;4.60;;;;;;;25.08;48.27;95147.22;6161533;28;109003;-60
2023/09/25 01:07:01;;;;;;;8.70;4.60;;;;;;;25.11;48.76;95153.03;6150704;28;108966;-60
2023/09/25 01:10:06;;;;;;;7.17;4.40;;;;;;;25.07;48.38;95151.00;6159663;28;109258;-59
2023/09/25 01:13:11;;;;;;;6.30;4.40;;;;;;;25.11;48.77;95151.16;6160343;28;109265;-60
2023/09/25 01:16:14;;;;;;;9.45;4.70;;;;;;;25.13;48.45;95156.19;6160334;28;108968;-58
2023/09/25 01:19:17;;;;;;;6.65;4.47;;;;;;;25.12;48.83;95157.28;6149160;28;108910;-59
2023/09/25 01:22:22;;;;;;;8.27;4.65;;;;;;;25.14;48.69;95157.75;6161667;28;109148;-59
2023/09/25 01:25:25;;;;;;;6.32;4.10;;;;;;;25.11;48.18;95163.75;6161716;28;109020;-59
2023/09/25 01:28:29;;;;;;;6.65;4.70;;;;;;;25.08;48.07;95165.19;6141651;28;108954;-59
2023/09/25 01:31:32;;;;;;;7.97;4.90;;;;;;;25.06;47.95;95157.47;6146965;28;109503;-59
2023/09/25 01:34:35;;;;;;;7.80;4.50;;;;;;;25.05;47.94;95171.97;6161628;28;108916;-59
2023/09/25 01:37:40;;;;;;;5.85;4.10;;;;;;;25.06;47.99;95178.13;6160899;28;108999;-58
2023/09/25 01:40:43;;;;;;;9.80;4.80;;;;;;;25.09;47.99;95175.56;6153732;28;108918;-64
2023/09/25 01:43:46;;;;;;;6.70;4.13;;;;;;;25.09;48.17;95180.94;6140866;28;108941;-58
2023/09/25 01:46:49;;;;;;;6.20;4.07;;;;;;;25.11;48.20;95174.47;6155846;28;108914;-58
2023/09/25 01:49:52;;;;;;;7.47;4.40;;;;;;;25.11;47.61;95169.09;6137013;28;108925;-58
2023/09/25 01:52:58;;;;;;;6.83;4.30;;;;;;;25.12;48.07;95176.81;6126073;28;109116;-59
2023/09/25 01:56:10;;;;;;;6.05;4.50;;;;;;;25.16;48.19;95190.34;6152528;28;108903;-70
2023/09/25 01:59:13;;;;;;;6.25;4.28;;;;;;;25.14;48.00;95200.59;6137031;28;109142;-69
2023/09/25 02:02:16;;;;;;;8.68;4.70;;;;;;;25.08;48.23;95192.75;6136723;28;109012;-69
2023/09/25 02:05:19;;;;;;;5.68;4.20;;;;;;;25.07;48.34;95199.22;6126579;28;108914;-69
2023/09/25 02:08:24;;;;;;;6.83;4.33;;;;;;;25.04;47.87;95204.44;6158371;28;109129;-68
2023/09/25 02:11:27;;;;;;;5.28;4.15;;;;;;;25.02;48.01;95204.72;6159208;28;108892;-69
2023/09/25 02:14:30;;;;;;;5.97;4.07;;;;;;;25.02;47.71;95202.03;6155150;28;109299;-68
2023/09/25 02:17:34;;;;;;;6.53;4.20;;;;;;;24.98;47.79;95206.47;6141022;28;109191;-69
2023/09/25 02:20:37;;;;;;;4.87;4.30;;;;;;;24.98;47.51;95213.72;6143759;28;109232;-68
2023/09/25 02:23:41;;;;;;;7.23;4.20;;;;;;;24.99;47.79;95199.22;6155627;28;110534;-67
2023/09/25 02:26:44;;;;;;;5.50;4.30;;;;;;;24.95;47.76;95207.13;6148352;28;108996;-69
2023/09/25 02:29:48;;;;;;;6.20;4.00;;;;;;;24.96;47.11;95211.38;6159340;28;108928;-69
2023/09/25 02:32:51;;;;;;;6.50;4.20;;;;;;;25.00;47.10;95211.50;6159509;28;108923;-69
2023/09/25 02:36:03;;;;;;;8.70;4.20;;;;;;;24.96;47.66;95210.59;6156446;28;108961;-70
2023/09/25 02:39:09;;;;;;;5.03;4.10;;;;;;;24.95;47.30;95211.69;6149301;28;109275;-67
2023/09/25 02:42:12;;;;;;;5.57;4.20;;;;;;;24.96;47.17;95221.28;6158149;28;109153;-68
2023/09/25 02:45:16;;;;;;;5.80;4.00;;;;;;;24.94;47.01;95216.25;6159726;28;109051;-68
2023/09/25 02:48:19;;;;;;;5.95;4.50;;;;;;;24.93;47.46;95222.72;6138360;28;109006;-63
2023/09/25 02:51:22;;;;;;;7.30;3.72;;;;;;;24.91;47.20;95226.81;6129698;28;109008;-68
2023/09/25 02:54:27;;;;;;;6.55;5.07;;;;;;;24.94;47.04;95231.53;6145004;28;109082;-70
2023/09/25 02:57:30;;;;;;;5.53;4.22;;;;;;;24.89;47.21;95232.50;6159130;28;109005;-69
2023/09/25 03:00:33;;;;;;;7.15;4.50;;;;;;;24.91;46.92;95232.19;6149172;28;108992;-68
2023/09/25 03:03:36;;;;;;;5.78;4.05;;;;;;;24.90;47.21;95234.06;6159806;28;109132;-69
2023/09/25 03:06:39;;;;;;;6.70;4.45;;;;;;;24.82;47.29;95229.50;6159822;28;109060;-67
2023/09/25 03:09:44;;;;;;;7.72;5.90;;;;;;;24.36;47.80;95241.69;6149708;28;109246;-69
2023/09/25 03:12:47;;;;;;;7.63;5.93;;;;;;;24.07;48.77;95236.94;6137293;28;110823;-69
2023/09/25 03:15:51;;;;;;;7.47;6.78;;;;;;;23.99;49.09;95251.03;6149286;28;108985;-70
2023/09/25 03:18:54;;;;;;;9.90;8.10;;;;;;;24.00;48.89;95247.28;6158205;28;108977;-69
2023/09/25 03:21:57;;;;;;;12.17;11.10;;;;;;;23.99;49.25;95250.25;6158296;28;109077;-70
2023/09/25 03:25:02;;;;;;;12.13;10.10;;;;;;;23.84;49.24;95252.25;6142518;28;108902;-69
2023/09/25 03:28:05;;;;;;;10.70;9.70;;;;;;;24.02;48.85;95258.47;6144700;28;109095;-69
2023/09/25 03:31:08;;;;;;;9.57;8.70;;;;;;;24.14;48.51;95255.19;6139563;28;108916;-69
2023/09/25 03:34:11;;;;;;;9.60;8.70;;;;;;;24.28;48.03;95255.81;6136955;28;109006;-69
2023/09/25 03:37:14;;;;;;;9.50;8.50;;;;;;;24.35;48.04;95260.69;6152904;28;109024;-69
2023/09/25 03:40:19;;;;;;;9.10;8.30;;;;;;;24.39;48.06;95254.41;6157522;28;109780;-70
2023/09/25 03:43:22;;;;;;;9.65;8.65;;;;;;;24.13;48.18;95250.94;6140442;28;108865;-72
2023/09/25 03:46:25;;;;;;;11.00;9.90;;;;;;;23.95;49.25;95251.97;6132762;28;110931;-70
2023/09/25 03:49:28;;;;;;;12.88;11.57;;;;;;;23.97;48.88;95252.44;6151054;28;108945;-74
2023/09/25 03:52:32;;;;;;;12.30;11.20;;;;;;;23.97;48.59;95258.59;6159119;28;108945;-73
2023/09/25 03:55:36;;;;;;;11.10;10.07;;;;;;;23.92;48.67;95255.28;6178041;28;109225;-74
2023/09/25 03:58:39;;;;;;;12.23;10.00;;;;;;;23.93;49.18;95254.97;6147203;28;109224;-74
2023/09/25 04:01:42;;;;;;;14.65;10.38;;;;;;;23.87;49.33;95262.34;6152245;28;109170;-73
2023/09/25 04:04:45;;;;;;;13.93;10.35;;;;;;;24.03;48.85;95261.94;6158500;28;109141;-74
2023/09/25 04:07:49;;;;;;;16.08;12.38;;;;;;;24.07;49.27;95260.22;6141811;28;108928;-68
2023/09/25 04:10:53;;;;;;;11.70;10.50;;;;;;;24.22;49.14;95257.09;6137617;28;109567;-70
2023/09/25 04:13:57;;;;;;;12.10;10.80;;;;;;;24.25;49.42;95259.13;6163469;28;109106;-69
2023/09/25 04:17:01;;;;;;;13.05;11.07;;;;;;;24.36;49.38;95262.25;6160589;28;108920;-69
2023/09/25 04:20:16;;;;;;;12.30;10.68;;;;;;;24.28;48.61;95265.72;6149325;28;109019;-74
2023/09/25 04:23:20;;;;;;;12.10;10.90;;;;;;;24.10;49.21;95275.63;6142987;28;108951;-74
2023/09/25 04:26:25;;;;;;;12.55;11.35;;;;;;;24.22;48.86;95267.78;6142810;28;108945;-74
2023/09/25 04:29:28;;;;;;;18.35;16.75;;;;;;;24.38;48.56;95278.81;6142987;28;108970;-74
2023/09/25 04:32:33;;;;;;;14.50;13.30;;;;;;;24.28;48.50;95282.56;6149640;28;108969;-73
2023/09/25 04:35:37;;;;;;;13.60;12.50;;;;;;;24.13;49.21;95281.13;6170981;28;108985;-73
2023/09/25 04:38:40;;;;;;;14.07;12.87;;;;;;;24.22;48.61;95280.38;6170862;28;109024;-74
2023/09/25 04:41:45;;;;;;;14.03;12.70;;;;;;;24.41;48.49;95281.63;6169664;28;108941;-74
2023/09/25 04:44:48;;;;;;;13.82;12.63;;;;;;;24.50;48.34;95285.09;6157540;28;108887;-74
2023/09/25 04:47:52;;;;;;;14.60;13.30;;;;;;;24.59;48.34;95281.63;6152442;28;108968;-75
2023/09/25 04:50:56;;;;;;;14.10;12.80;;;;;;;24.63;48.24;95286.03;6143547;28;108925;-73
2023/09/25 04:54:00;;;;;;;14.48;12.98;;;;;;;24.65;48.19;95285.72;6141714;28;108909;-65
2023/09/25 04:57:04;;;;;;;14.00;12.80;;;;;;;24.60;48.47;95284.00;6157967;28;109157;-75
2023/09/25 05:00:14;;;;;;;14.70;13.50;;;;;;;24.63;48.43;95282.56;6172311;28;109055;-74
2023/09/25 05:03:18;;;;;;;14.57;13.27;;;;;;;24.62;48.55;95279.09;6171777;28;109181;-74
2023/09/25 05:06:21;;;;;;;15.00;13.63;;;;;;;24.49;49.01;95288.84;6160917;28;109234;-74
2023/09/25 05:09:25;;;;;;;14.55;13.05;;;;;;;24.37;49.12;95285.25;6170788;28;108946;-74
2023/09/25 05:12:29;;;;;;;14.13;12.77;;;;;;;24.29;49.69;95294.84;6173569;28;108776;-74
2023/09/25 05:15:32;;;;;;;14.52;13.32;;;;;;;24.09;50.26;95295.44;6173122;28;108919;-74
2023/09/25 05:18:36;;;;;;;14.23;13.02;;;;;;;23.97;50.55;95298.69;6136274;28;109006;-74
2023/09/25 05:21:39;;;;;;;14.73;13.32;;;;;;;23.93;50.92;95296.94;6145027;28;109059;-73
2023/09/25 05:24:43;;;;;;;14.45;13.20;;;;;;;23.88;50.65;95301.34;6143326;28;109007;-68
2023/09/25 05:27:52;;;;;;;14.20;13.00;;;;;;;23.75;51.03;95302.25;6150303;28;108911;-67
2023/09/25 05:30:56;;;;;;;14.00;12.90;;;;;;;23.73;51.22;95304.44;6148913;28;109289;-68
2023/09/25 05:33:59;;;;;;;14.50;13.10;;;;;;;23.62;51.22;95311.16;6137763;28;108945;-68
2023/09/25 05:37:02;;;;;;;14.32;13.13;;;;;;;23.70;51.26;95318.44;6148520;28;108992;-68
2023/09/25 05:40:09;;;;;;;13.30;11.90;;;;;;;23.58;51.28;95318.22;6151106;28;109004;-68
2023/09/25 05:43:14;;;;;;;13.00;11.30;;;;;;;23.78;50.84;95314.97;6141486;28;109015;-67
2023/09/25 05:46:17;;;;;;;11.80;10.60;;;;;;;23.74;51.12;95326.59;6136591;28;109433;-67
2023/09/25 05:49:21;;;;;;;11.70;10.70;;;;;;;23.88;50.71;95328.06;6137638;28;108861;-67
2023/09/25 05:52:24;;;;;;;10.80;9.80;;;;;;;23.92;50.69;95333.59;6126514;28;109259;-66
2023/09/25 05:55:27;;;;;;;11.00;9.90;;;;;;;24.09;50.65;95332.88;6137498;28;108978;-66
2023/09/25 05:58:32;;;;;;;10.82;9.63;;;;;;;24.08;50.20;95331.31;6158341;28;108908;-68
2023/09/25 06:01:35;;;;;;;10.80;9.90;;;;;;;24.13;49.97;95331.16;6158412;28;108857;-67
2023/09/25 06:04:39;;;;;;;9.75;8.75;;;;;;;24.19;49.97;95340.59;6154977;28;109107;-68
2023/09/25 06:07:43;;;;;;;10.30;9.40;;;;;;;24.19;50.08;95340.59;6160799;28;108910;-67
2023/09/25 06:10:47;;;;;;;10.27;9.32;;;;;;;24.15;50.34;95345.78;6161132;28;109269;-68
2023/09/25 06:13:51;;;;;;;10.40;9.40;;;;;;;24.24;50.15;95351.16;6128504;28;109981;-67
2023/09/25 06:16:56;;;;;;;10.40;9.40;;;;;;;24.06;50.64;95349.53;6135520;28;109180;-69
2023/09/25 06:19:59;;;;;;;11.63;10.52;;;;;;;24.03;50.71;95347.50;6137226;28;109139;-69
2023/09/25 06:23:03;;;;;;;11.30;10.23;;;;;;;23.90;51.26;95349.94;6137077;28;108992;-69
2023/09/25 06:26:06;;;;;;;11.38;10.38;;;;;;;23.99;51.04;95359.84;6126296;28;109218;-68
2023/09/25 06:29:11;;;;;;;12.57;11.47;;;;;;;23.99;51.41;95359.84;6136503;28;108958;-65
2023/09/25 06:32:14;;;;;;;12.18;11.18;;;;;;;24.03;50.79;95358.19;6135343;28;109047;-66
2023/09/25 06:35:17;;;;;;;13.23;12.02;;;;;;;23.92;51.25;95371.00;6136736;28;108986;-62
2023/09/25 06:38:21;;;;;;;12.65;11.43;;;;;;;23.94;51.39;95371.47;6145440;28;109866;-62
2023/09/25 06:41:24;;;;;;;13.60;12.40;;;;;;;23.85;51.36;95363.41;6160458;28;108889;-62
2023/09/25 06:44:28;;;;;;;12.70;11.50;;;;;;;23.84;51.56;95367.19;6160669;28;108925;-62
2023/09/25 06:47:33;;;;;;;14.05;12.75;;;;;;;23.93;51.12;95374.47;6154535;28;108934;-62
2023/09/25 06:50:36;;;;;;;13.70;12.57;;;;;;;23.99;51.19;95375.91;6155162;28;108878;-62
2023/09/25 06:53:40;;;;;;;14.38;13.07;;;;;;;24.11;51.07;95378.81;6140748;28;108892;-61
2023/09/25 06:56:43;;;;;;;15.50;14.07;;;;;;;24.08;51.23;95384.78;6136458;28;108884;-62
2023/09/25 06:59:47;;;;;;;15.30;13.80;;;;;;;24.24;50.60;95383.25;6125394;28;108912;-62
2023/09/25 07:02:50;;;;;;;15.27;13.88;;;;;;;24.43;50.15;95381.09;6136322;28;109006;-62
2023/09/25 07:05:54;;;;;;;15.60;14.27;;;;;;;24.49;50.01;95379.03;6137394;28;108919;-62
2023/09/25 07:08:57;;;;;;;16.30;14.82;;;;;;;24.45;49.61;95378.09;6160585;28;108955;-62
2023/09/25 07:12:00;;;;;;;18.52;15.63;;;;;;;24.52;49.25;95383.75;6148769;28;109574;-62
2023/09/25 07:15:06;;;;;;;17.42;15.88;;;;;;;24.59;49.14;95386.00;6159907;28;108937;-61
2023/09/25 07:18:09;;;;;;;16.20;14.70;;;;;;;24.61;48.72;95384.56;6158922;28;109039;-62
2023/09/25 07:21:12;;;;;;;16.10;14.73;;;;;;;24.61;48.76;95386.47;6155277;28;108905;-62
2023/09/25 07:24:16;;;;;;;17.40;15.90;;;;;;;24.69;48.19;95375.78;6153692;28;108909;-62
2023/09/25 07:27:19;;;;;;;15.60;14.30;;;;;;;24.75;47.72;95381.78;6159438;28;109251;-59
2023/09/25 07:30:24;;;;;;;15.55;14.15;;;;;;;25.03;47.34;95383.06;6159665;28;108918;-58
2023/09/25 07:33:28;;;;;;;14.32;13.00;;;;;;;25.26;46.93;95380.19;6133190;28;108951;-58
2023/09/25 07:36:32;;;;;;;14.50;13.30;;;;;;;25.40;46.66;95388.88;6135676;28;108927;-61
2023/09/25 07:39:40;;;;;;;14.50;13.20;;;;;;;25.44;46.59;95386.34;6160155;28;108894;-59
2023/09/25 07:42:43;;;;;;;13.27;12.18;;;;;;;25.42;46.35;95385.88;6158716;28;108984;-60
2023/09/25 07:45:49;;;;;;;13.77;12.38;;;;;;;25.48;45.63;95393.41;6149533;28;109232;-61
2023/09/25 07:48:52;;;;;;;13.33;12.13;;;;;;;25.55;45.76;95395.63;6157873;28;108904;-60
2023/09/25 07:52:00;;;;;;;12.00;11.00;;;;;;;25.59;45.58;95400.00;6157330;28;108916;-60
2023/09/25 07:55:06;;;;;;;11.65;10.65;;;;;;;25.66;45.37;95391.47;6135538;28;108904;-60
2023/09/25 07:58:12;;;;;;;11.30;10.30;;;;;;;25.71;45.31;95394.00;6126458;28;108934;-60
2023/09/25 08:01:17;;;;;;;11.50;10.50;;;;;;;25.72;45.06;95394.78;6135329;28;108854;-61
2023/09/25 08:04:20;;;;;;;10.70;9.80;;;;;;;25.76;45.12;95399.16;6156877;28;109296;-60
2023/09/25 08:07:24;;;;;;;10.25;9.38;;;;;;;25.78;45.27;95394.28;6141228;28;109198;-59
2023/09/25 08:10:27;;;;;;;10.10;9.20;;;;;;;25.79;44.77;95409.25;6158899;28;109208;-60
2023/09/25 08:13:30;;;;;;;9.20;8.30;;;;;;;25.78;44.42;95390.81;6159408;28;109156;-60
2023/09/25 08:16:35;;;;;;;9.55;8.75;;;;;;;25.67;44.85;95391.16;6159061;28;108873;-61
2023/09/25 08:19:38;;;;;;;9.50;8.60;;;;;;;25.65;44.40;95387.22;6125159;28;108833;-61
2023/09/25 08:22:41;;;;;;;9.27;8.38;;;;;;;25.66;44.86;95388.78;6134940;28;109134;-60
2023/09/25 08:25:44;;;;;;;8.80;8.00;;;;;;;25.71;44.35;95390.50;6135121;28;109078;-60
2023/09/25 08:28:48;;;;;;;8.90;8.10;;;;;;;25.73;44.28;95396.34;6150746;28;108853;-61
2023/09/25 08:31:53;;;;;;;8.03;7.23;;;;;;;25.71;44.31;95390.50;6147389;28;109025;-62
2023/09/25 08:34:56;;;;;;;7.78;7.18;;;;;;;25.67;43.90;95379.63;6134717;28;108888;-60
2023/09/25 08:38:00;;;;;;;7.80;7.00;;;;;;;25.66;44.35;95384.22;6143126;28;109262;-59
2023/09/25 08:41:03;;;;;;;7.80;7.10;;;;;;;25.61;44.34;95384.38;6153719;28;109113;-61
2023/09/25 08:44:07;;;;;;;7.50;6.80;;;;;;;25.58;44.23;95385.03;6153463;28;108898;-60
2023/09/25 08:47:12;;;;;;;6.67;6.17;;;;;;;25.57;44.17;95386.16;6158482;28;109282;-61
2023/09/25 08:50:16;;;;;;;6.32;5.72;;;;;;;25.52;44.51;95380.94;6158246;28;108905;-62
2023/09/25 08:53:19;;;;;;;6.30;5.80;;;;;;;25.52;44.04;95382.81;6147631;28;109790;-61
2023/09/25 08:56:23;;;;;;;6.40;5.80;;;;;;;25.50;44.06;95383.16;6162869;28;109156;-69
2023/09/25 08:59:26;;;;;;;6.40;5.80;;;;;;;25.47;44.12;95381.13;6162564;28;108938;-69
2023/09/25 09:02:31;;;;;;;6.57;5.97;;;;;;;25.44;44.55;95387.13;6162714;28;109125;-70
2023/09/25 09:05:35;;;;;;;6.35;5.80;;;;;;;25.40;45.04;95378.16;6152180;28;108952;-70
2023/09/25 09:08:38;;;;;;;6.13;5.53;;;;;;;25.37;44.45;95382.25;6150297;28;108882;-70
2023/09/25 09:11:49;;;;;;;6.22;5.63;;;;;;;25.35;44.30;95383.66;6138866;28;108876;-69
2023/09/25 09:14:53;;;;;;;6.70;5.97;;;;;;;25.32;45.04;95394.97;6155405;28;109484;-69
2023/09/25 09:17:58;;;;;;;6.00;5.40;;;;;;;25.24;44.55;95385.06;6156600;28;109432;-70
2023/09/25 09:21:01;;;;;;;6.30;5.47;;;;;;;25.23;44.56;95388.88;6161274;28;108878;-70
2023/09/25 09:24:08;;;;;;;5.90;5.40;;;;;;;25.23;44.96;95400.38;6161848;28;109071;-70
2023/09/25 09:27:14;;;;;;;5.80;5.20;;;;;;;25.23;44.96;95392.31;6151618;28;108834;-70
2023/09/25 09:30:24;;;;;;;6.10;5.00;;;;;;;25.25;44.65;95394.69;6162046;28;109005;-68
2023/09/25 09:33:30;;;;;;;7.00;6.30;;;;;;;25.21;44.60;95385.72;6161832;28;109164;-70
2023/09/25 09:36:34;;;;;;;7.43;6.63;;;;;;;25.19;44.82;95383.31;6156992;28;108961;-69
2023/09/25 09:39:38;;;;;;;7.10;6.40;;;;;;;25.22;44.56;95400.69;6145198;28;109046;-69
2023/09/25 09:42:44;;;;;;;7.50;6.80;;;;;;;25.24;44.55;95385.06;6162678;28;108913;-69
2023/09/25 09:45:50;;;;;;;7.05;6.30;;;;;;;25.26;44.31;95375.63;6162034;28;108906;-68
2023/09/25 09:48:57;;;;;;;6.87;6.17;;;;;;;25.31;44.26;95380.00;6159004;28;109317;-68
2023/09/25 09:52:02;;;;;;;6.07;5.47;;;;;;;25.31;44.27;95383.47;6156008;28;109120;-70
2023/09/25 09:55:07;;;;;;;6.47;5.47;;;;;;;25.33;44.07;95380.47;6161780;28;108914;-70
2023/09/25 09:58:11;;;;;;;5.90;5.40;;;;;;;25.31;43.97;95378.13;6155978;28;108897;-70
2023/09/25 10:01:15;;;;;;;5.45;4.95;;;;;;;25.35;43.96;95384.44;6126925;28;109904;-69
2023/09/25 10:04:20;;;;;;;5.80;5.20;;;;;;;25.32;44.08;95381.59;6136868;28;108913;-70
2023/09/25 10:07:24;;;;;;;5.60;5.10;;;;;;;25.33;44.25;95383.94;6137515;28;109015;-59
2023/09/25 10:10:27;;;;;;;5.90;5.10;;;;;;;25.30;44.40;95384.59;6160106;28;109221;-59
2023/09/25 10:13:30;;;;;;;5.65;5.05;;;;;;;25.31;44.25;95375.44;6150169;28;108922;-60
2023/09/25 10:17:09;;;;;;;6.20;5.10;;;;;;;25.29;44.03;95369.63;6161629;28;108879;-59
2023/09/25 10:20:37;;;;;;;5.63;5.00;;;;;;;25.30;44.22;95376.53;6154712;28;109443;-58
2023/09/25 10:23:43;;;;;;;5.28;4.80;;;;;;;25.32;43.99;95373.53;6152567;28;109167;-65
2023/09/25 10:26:48;;;;;;;7.73;4.93;;;;;;;25.35;43.57;95362.22;6159117;28;109185;-58
2023/09/25 10:30:13;;;;;;;5.07;4.67;;;;;;;25.35;43.82;95372.94;6160980;28;108938;-58
2023/09/25 10:33:18;;;;;;;5.30;4.80;;;;;;;25.33;44.43;95375.13;6155710;28;108896;-59
2023/09/25 10:36:35;;;;;;;5.80;5.10;;;;;;;25.33;44.05;95367.88;6125874;28;111594;-58
2023/09/25 10:39:38;;;;;;;4.88;4.47;;;;;;;25.35;43.35;95365.69;6151538;28;108903;-59
2023/09/25 10:42:41;;;;;;;5.60;4.80;;;;;;;25.40;43.47;95364.75;6160212;28;108969;-58
2023/09/25 10:45:45;;;;;;;4.50;4.10;;;;;;;25.43;43.38;95364.09;6134981;28;109057;-59
2023/09/25 10:48:48;;;;;;;4.75;4.35;;;;;;;25.42;43.66;95359.06;6129068;28;108916;-58
2023/09/25 10:51:54;;;;;;;5.80;4.90;;;;;;;25.39;43.85;95379.25;6136123;28;109185;-58
2023/09/25 10:54:57;;;;;;;5.50;4.80;;;;;;;25.31;43.22;95372.75;6135177;28;108899;-59
2023/09/25 10:58:01;;;;;;;5.60;5.00;;;;;;;25.32;43.59;95363.63;6126391;28;109147;-59
2023/09/25 11:01:05;;;;;;;5.22;4.68;;;;;;;25.33;43.73;95367.09;6159770;28;108985;-58
2023/09/25 11:04:12;;;;;;;5.60;5.10;;;;;;;25.36;43.40;95355.75;6149575;28;108990;-58
2023/09/25 11:07:17;;;;;;;5.20;4.70;;;;;;;25.38;43.29;95353.56;6136181;28;108939;-58
2023/09/25 11:10:20;;;;;;;5.70;5.00;;;;;;;25.34;43.73;95356.03;6144292;28;109330;-59
2023/09/25 11:13:23;;;;;;;5.25;4.50;;;;;;;25.33;43.20;95364.41;6156630;28;108937;-58
2023/09/25 11:16:26;;;;;;;5.47;4.90;;;;;;;25.33;43.50;95359.03;6135746;28;108934;-59
2023/09/25 11:19:30;;;;;;;5.63;4.65;;;;;;;25.33;43.36;95362.50;6135751;28;110188;-70
2023/09/25 11:22:38;;;;;;;5.13;4.72;;;;;;;25.36;43.60;95353.06;6124405;28;108909;-70
2023/09/25 11:25:43;;;;;;;5.25;4.75;;;;;;;25.38;43.36;95364.28;6134754;28;108997;-69
2023/09/25 11:28:46;;;;;;;5.15;4.65;;;;;;;25.37;43.63;95360.00;6135338;28;108905;-68
2023/09/25 11:31:51;;;;;;;5.45;4.95;;;;;;;25.38;43.32;95345.53;6129225;28;108997;-62
2023/09/25 11:35:05;;;;;;;5.65;4.57;;;;;;;25.40;43.81;95346.00;6134991;28;109070;-69
2023/09/25 11:38:15;;;;;;;4.40;4.10;;;;;;;25.42;43.43;95343.00;6135631;28;109286;-68
2023/09/25 11:41:19;;;;;;;5.35;4.85;;;;;;;25.43;43.33;95347.25;6135308;28;108898;-70
2023/09/25 11:44:22;;;;;;;5.80;4.80;;;;;;;25.42;43.54;95343.78;6124579;28;109061;-70
2023/09/25 11:47:25;;;;;;;5.70;5.00;;;;;;;25.37;43.69;95341.25;6135372;28;109224;-68
2023/09/25 11:50:29;;;;;;;5.50;5.00;;;;;;;25.34;43.60;95337.28;6153538;28;109284;-68
2023/09/25 11:53:34;;;;;;;6.00;5.20;;;;;;;25.37;43.41;95335.88;6159154;28;109157;-69
2023/09/25 11:56:37;;;;;;;5.50;4.90;;;;;;;25.40;43.81;95337.97;6149061;28;109286;-69
2023/09/25 11:59:42;;;;;;;5.40;4.90;;;;;;;25.40;43.51;95335.28;6147702;28;108946;-68
2023/09/25 12:02:47;;;;;;;5.20;4.57;;;;;;;25.42;43.99;95340.31;6135166;28;108886;-69
2023/09/25 12:05:50;;;;;;;5.30;4.80;;;;;;;25.40;44.03;95337.97;6130500;28;109641;-69
2023/09/25 12:08:55;;;;;;;4.80;4.40;;;;;;;25.42;43.65;95335.75;6150180;28;109768;-69
2023/09/25 12:11:58;;;;;;;5.50;4.90;;;;;;;25.44;43.59;95328.16;6159053;28;108998;-69
2023/09/25 12:15:03;;;;;;;5.17;4.67;;;;;;;25.47;43.60;95329.41;6159067;28;108911;-69
2023/09/25 12:18:06;;;;;;;5.50;5.00;;;;;;;25.48;43.80;95334.44;6149920;28;111668;-69
2023/09/25 12:21:10;;;;;;;5.00;4.60;;;;;;;25.51;43.90;95333.03;6136336;28;108854;-69
2023/09/25 12:24:14;;;;;;;5.53;5.03;;;;;;;25.50;43.93;95337.59;6140582;28;108913;-69
2023/09/25 12:27:17;;;;;;;6.00;5.50;;;;;;;25.49;44.71;95335.25;6154130;28;109655;-61
2023/09/25 12:30:21;;;;;;;7.05;6.45;;;;;;;25.45;46.26;95340.44;6144512;28;108995;-60
2023/09/25 12:33:24;;;;;;;7.40;6.00;;;;;;;25.55;45.29;95332.09;6160273;28;109248;-61
2023/09/25 12:36:28;;;;;;;7.40;6.43;;;;;;;25.62;46.18;95326.22;6155307;28;109307;-61
2023/09/25 12:39:33;;;;;;;6.95;6.35;;;;;;;25.65;46.18;95331.72;6159737;28;109446;-60
2023/09/25 12:42:36;;;;;;;6.97;6.28;;;;;;;25.73;46.75;95332.81;6158032;28;109026;-60
2023/09/25 12:45:56;;;;;;;8.48;7.38;;;;;;;25.71;46.51;95328.84;6158808;28;109183;-60
2023/09/25 12:49:00;;;;;;;8.73;7.30;;;;;;;25.77;46.59;95340.97;6158170;28;108938;-62
2023/09/25 12:52:03;;;;;;;8.68;7.78;;;;;;;25.73;46.81;95335.47;6150621;28;109737;-60
2023/09/25 12:55:08;;;;;;;8.45;7.55;;;;;;;25.73;46.80;95334.69;6166012;28;109342;-61
2023/09/25 12:58:12;;;;;;;9.57;7.63;;;;;;;25.72;46.87;95330.44;6151990;28;108925;-59
2023/09/25 13:01:15;;;;;;;8.23;7.50;;;;;;;25.71;46.97;95342.25;6162518;28;109253;-61
2023/09/25 13:04:19;;;;;;;9.03;8.13;;;;;;;25.74;47.12;95339.72;6152132;28;110569;-64
2023/09/25 13:07:22;;;;;;;8.63;7.82;;;;;;;25.73;47.71;95337.38;6166166;28;108928;-62
2023/09/25 13:10:28;;;;;;;11.02;8.45;;;;;;;25.76;47.40;95340.19;6158904;28;109004;-60
2023/09/25 13:13:31;;;;;;;8.87;7.97;;;;;;;25.77;47.78;95335.63;6151440;28;108892;-63
2023/09/25 13:16:35;;;;;;;9.00;8.20;;;;;;;25.75;47.91;95337.84;6150029;28;108925;-60
2023/09/25 13:19:41;;;;;;;8.93;8.13;;;;;;;25.80;47.45;95332.28;6157608;28;110151;-62
2023/09/25 13:22:45;;;;;;;10.02;8.77;;;;;;;25.76;48.03;95336.72;6163672;28;108961;-60
2023/09/25 13:25:49;;;;;;;9.03;8.10;;;;;;;25.71;47.86;95331.53;6148529;28;109406;-62
2023/09/25 13:28:54;;;;;;;9.30;8.43;;;;;;;25.69;47.94;95335.31;6159869;28;108999;-61
2023/09/25 13:31:57;;;;;;;9.50;8.70;;;;;;;25.73;48.14;95334.69;6156730;28;110393;-60
2023/09/25 13:35:00;;;;;;;8.90;8.00;;;;;;;25.71;48.34;95343.06;6158461;28;109757;-61
2023/09/25 13:38:03;;;;;;;8.77;7.88;;;;;;;25.74;47.69;95336.25;6146337;28;109128;-66
2023/09/25 13:41:10;;;;;;;9.30;8.30;;;;;;;25.71;47.76;95331.53;6159906;28;109292;-66
2023/09/25 13:44:13;;;;;;;9.60;8.10;;;;;;;25.78;48.15;95334.50;6158315;28;108972;-63
2023/09/25 13:47:16;;;;;;;10.63;9.50;;;;;;;25.76;48.20;95332.16;6160079;28;110610;-66
2023/09/25 13:50:19;;;;;;;9.77;8.73;;;;;;;25.63;48.08;95331.25;6150564;28;108949;-65
2023/09/25 13:53:22;;;;;;;9.53;8.63;;;;;;;25.72;47.85;95325.88;6165631;28;109652;-67
2023/09/25 13:56:27;;;;;;;9.47;8.57;;;;;;;25.66;47.94;95327.91;6161401;28;109048;-66
2023/09/25 13:59:30;;;;;;;8.93;8.07;;;;;;;25.72;48.10;95333.13;6152303;28;108977;-66
2023/09/25 14:02:33;;;;;;;9.10;8.20;;;;;;;25.71;47.77;95335.03;6152834;28;110474;-66
2023/09/25 14:05:36;;;;;;;9.35;8.45;;;;;;;25.64;48.13;95335.50;6161214;28;109007;-67
2023/09/25 14:08:40;;;;;;;8.77;7.85;;;;;;;25.65;47.39;95330.91;6160327;28;109004;-66
2023/09/25 14:11:44;;;;;;;8.50;7.72;;;;;;;25.68;47.40;95322.22;6153097;28;108934;-67